sensor_id;sensor_type;location;lat;lon;timestamp;temperature;humidity
39219;DHT22;24934;52.752;6.964;2022-11-25T00:02:20;6.40;99.90
39219;DHT22;24934;52.752;6.964;2022-11-25T00:04:46;6.40;99.90
39219;DHT22;24934;52.752;6.964;2022-11-25T00:07:13;6.40;99.90
39219;DHT22;24934;52.752;6.964;2022-11-25T00:09:39;6.40;99.90
39219;DHT22;24934;52.752;6.964;2022-11-25T00:12:05;6.30;99.90
39219;DHT22;24934;52.752;6.964;2022-11-25T00:14:31;6.30;99.90
39219;DHT22;24934;52.752;6.964;2022-11-25T00:16:56;6.30;99.90
39219;DHT22;24934;52.752;6.964;2022-11-25T00:19:22;6.30;99.90
39219;DHT22;24934;52.752;6.964;2022-11-25T00:21:47;6.30;99.90
39219;DHT22;24934;52.752;6.964;2022-11-25T00:24:14;6.30;99.90
39219;DHT22;24934;52.752;6.964;2022-11-25T00:26:40;6.30;99.90
39219;DHT22;24934;52.752;6.964;2022-11-25T00:29:10;6.30;99.90
39219;DHT22;24934;52.752;6.964;2022-11-25T00:31:38;6.30;99.90
39219;DHT22;24934;52.752;6.964;2022-11-25T00:34:04;6.30;99.90
39219;DHT22;24934;52.752;6.964;2022-11-25T00:36:32;6.30;99.90
39219;DHT22;24934;52.752;6.964;2022-11-25T00:39:04;6.30;99.90
39219;DHT22;24934;52.752;6.964;2022-11-25T00:41:30;6.40;99.90
39219;DHT22;24934;52.752;6.964;2022-11-25T00:44:16;6.40;99.90
39219;DHT22;24934;52.752;6.964;2022-11-25T00:47:02;6.40;99.90
39219;DHT22;24934;52.752;6.964;2022-11-25T00:49:31;6.40;99.90
39219;DHT22;24934;52.752;6.964;2022-11-25T00:51:57;6.40;99.90
39219;DHT22;24934;52.752;6.964;2022-11-25T00:54:23;6.40;99.90
39219;DHT22;24934;52.752;6.964;2022-11-25T00:56:49;6.40;99.90
39219;DHT22;24934;52.752;6.964;2022-11-25T00:59:15;6.40;99.90
39219;DHT22;24934;52.752;6.964;2022-11-25T01:01:41;6.40;99.90
39219;DHT22;24934;52.752;6.964;2022-11-25T01:04:06;6.40;99.90
39219;DHT22;24934;52.752;6.964;2022-11-25T01:06:33;6.50;99.90
39219;DHT22;24934;52.752;6.964;2022-11-25T01:08:59;6.50;99.90
39219;DHT22;24934;52.752;6.964;2022-11-25T01:11:24;6.40;99.90
39219;DHT22;24934;52.752;6.964;2022-11-25T01:13:50;6.30;99.90
39219;DHT22;24934;52.752;6.964;2022-11-25T01:16:19;6.30;99.90
39219;DHT22;24934;52.752;6.964;2022-11-25T01:18:45;6.30;99.90
39219;DHT22;24934;52.752;6.964;2022-11-25T01:21:20;6.20;99.90
39219;DHT22;24934;52.752;6.964;2022-11-25T01:23:46;6.20;99.90
39219;DHT22;24934;52.752;6.964;2022-11-25T01:26:15;6.20;99.90
39219;DHT22;24934;52.752;6.964;2022-11-25T01:28:41;6.20;99.90
39219;DHT22;24934;52.752;6.964;2022-11-25T01:31:15;6.20;99.90
39219;DHT22;24934;52.752;6.964;2022-11-25T01:33:42;6.20;99.90
39219;DHT22;24934;52.752;6.964;2022-11-25T01:36:12;6.20;99.90
39219;DHT22;24934;52.752;6.964;2022-11-25T01:38:38;6.20;99.90
39219;DHT22;24934;52.752;6.964;2022-11-25T01:41:05;6.20;99.90
39219;DHT22;24934;52.752;6.964;2022-11-25T01:43:31;6.30;99.90
39219;DHT22;24934;52.752;6.964;2022-11-25T01:46:08;6.30;99.90
39219;DHT22;24934;52.752;6.964;2022-11-25T01:48:40;6.30;99.90
39219;DHT22;24934;52.752;6.964;2022-11-25T01:51:37;6.30;99.90
39219;DHT22;24934;52.752;6.964;2022-11-25T01:54:05;6.40;99.90
39219;DHT22;24934;52.752;6.964;2022-11-25T01:56:42;6.40;99.90
39219;DHT22;24934;52.752;6.964;2022-11-25T01:59:10;6.40;99.90
39219;DHT22;24934;52.752;6.964;2022-11-25T02:01:36;6.50;99.90
39219;DHT22;24934;52.752;6.964;2022-11-25T02:04:03;6.50;99.90
39219;DHT22;24934;52.752;6.964;2022-11-25T02:06:33;6.50;99.90
39219;DHT22;24934;52.752;6.964;2022-11-25T02:09:05;6.60;99.90
39219;DHT22;24934;52.752;6.964;2022-11-25T02:11:34;6.60;99.90
39219;DHT22;24934;52.752;6.964;2022-11-25T02:14:02;6.60;99.90
39219;DHT22;24934;52.752;6.964;2022-11-25T02:16:28;6.50;99.90
39219;DHT22;24934;52.752;6.964;2022-11-25T02:18:53;6.50;99.90
39219;DHT22;24934;52.752;6.964;2022-11-25T02:21:46;6.50;99.90
39219;DHT22;24934;52.752;6.964;2022-11-25T02:24:36;6.50;99.90
39219;DHT22;24934;52.752;6.964;2022-11-25T02:27:07;6.50;99.90
39219;DHT22;24934;52.752;6.964;2022-11-25T02:29:33;6.40;99.90
39219;DHT22;24934;52.752;6.964;2022-11-25T02:31:59;6.40;99.90
39219;DHT22;24934;52.752;6.964;2022-11-25T02:34:24;6.40;99.90
39219;DHT22;24934;52.752;6.964;2022-11-25T02:36:50;6.40;99.90
39219;DHT22;24934;52.752;6.964;2022-11-25T02:39:17;6.40;99.90
39219;DHT22;24934;52.752;6.964;2022-11-25T02:41:46;6.30;99.90
39219;DHT22;24934;52.752;6.964;2022-11-25T02:44:14;6.40;99.90
39219;DHT22;24934;52.752;6.964;2022-11-25T02:46:42;6.40;99.90
39219;DHT22;24934;52.752;6.964;2022-11-25T02:49:08;6.40;99.90
39219;DHT22;24934;52.752;6.964;2022-11-25T02:51:34;6.40;99.90
39219;DHT22;24934;52.752;6.964;2022-11-25T02:54:00;6.40;99.90
39219;DHT22;24934;52.752;6.964;2022-11-25T02:56:29;6.40;99.90
39219;DHT22;24934;52.752;6.964;2022-11-25T02:58:55;6.40;99.90
39219;DHT22;24934;52.752;6.964;2022-11-25T03:01:20;6.40;99.90
39219;DHT22;24934;52.752;6.964;2022-11-25T03:03:46;6.40;99.90
39219;DHT22;24934;52.752;6.964;2022-11-25T03:06:12;6.40;99.90
39219;DHT22;24934;52.752;6.964;2022-11-25T03:08:37;6.40;99.90
39219;DHT22;24934;52.752;6.964;2022-11-25T03:11:04;6.40;99.90
39219;DHT22;24934;52.752;6.964;2022-11-25T03:13:30;6.40;99.90
39219;DHT22;24934;52.752;6.964;2022-11-25T03:15:58;6.40;99.90
39219;DHT22;24934;52.752;6.964;2022-11-25T03:18:24;6.40;99.90
39219;DHT22;24934;52.752;6.964;2022-11-25T03:20:53;6.40;99.90
39219;DHT22;24934;52.752;6.964;2022-11-25T03:23:20;6.40;99.90
39219;DHT22;24934;52.752;6.964;2022-11-25T03:25:45;6.40;99.90
39219;DHT22;24934;52.752;6.964;2022-11-25T03:28:11;6.40;99.90
39219;DHT22;24934;52.752;6.964;2022-11-25T03:30:36;6.40;99.90
39219;DHT22;24934;52.752;6.964;2022-11-25T03:33:02;6.30;99.90
39219;DHT22;24934;52.752;6.964;2022-11-25T03:35:28;6.30;99.90
39219;DHT22;24934;52.752;6.964;2022-11-25T03:37:54;6.30;99.90
39219;DHT22;24934;52.752;6.964;2022-11-25T03:40:19;6.30;99.90
39219;DHT22;24934;52.752;6.964;2022-11-25T03:42:45;6.30;99.90
39219;DHT22;24934;52.752;6.964;2022-11-25T03:45:12;6.30;99.90
39219;DHT22;24934;52.752;6.964;2022-11-25T03:47:40;6.30;99.90
39219;DHT22;24934;52.752;6.964;2022-11-25T03:50:06;6.30;99.90
39219;DHT22;24934;52.752;6.964;2022-11-25T03:52:32;6.30;99.90
39219;DHT22;24934;52.752;6.964;2022-11-25T03:54:57;6.30;99.90
39219;DHT22;24934;52.752;6.964;2022-11-25T03:57:23;6.30;99.90
39219;DHT22;24934;52.752;6.964;2022-11-25T03:59:49;6.30;99.90
39219;DHT22;24934;52.752;6.964;2022-11-25T04:02:14;6.30;99.90
39219;DHT22;24934;52.752;6.964;2022-11-25T04:04:40;6.30;99.90
39219;DHT22;24934;52.752;6.964;2022-11-25T04:07:08;6.30;99.90
39219;DHT22;24934;52.752;6.964;2022-11-25T04:09:34;6.30;99.90
39219;DHT22;24934;52.752;6.964;2022-11-25T04:11:59;6.30;99.90
39219;DHT22;24934;52.752;6.964;2022-11-25T04:14:44;6.30;99.90
39219;DHT22;24934;52.752;6.964;2022-11-25T04:17:10;6.30;99.90
39219;DHT22;24934;52.752;6.964;2022-11-25T04:19:35;6.30;99.90
39219;DHT22;24934;52.752;6.964;2022-11-25T04:22:01;6.40;99.90
39219;DHT22;24934;52.752;6.964;2022-11-25T04:24:27;6.40;99.90
39219;DHT22;24934;52.752;6.964;2022-11-25T04:26:53;6.40;99.90
39219;DHT22;24934;52.752;6.964;2022-11-25T04:29:19;6.40;99.90
39219;DHT22;24934;52.752;6.964;2022-11-25T04:31:45;6.40;99.90
39219;DHT22;24934;52.752;6.964;2022-11-25T04:34:10;6.50;99.90
39219;DHT22;24934;52.752;6.964;2022-11-25T04:36:36;6.50;99.90
39219;DHT22;24934;52.752;6.964;2022-11-25T04:39:02;6.50;99.90
39219;DHT22;24934;52.752;6.964;2022-11-25T04:41:28;6.60;99.90
39219;DHT22;24934;52.752;6.964;2022-11-25T04:43:53;6.60;99.90
39219;DHT22;24934;52.752;6.964;2022-11-25T04:46:22;6.60;99.90
39219;DHT22;24934;52.752;6.964;2022-11-25T04:48:49;6.60;99.90
39219;DHT22;24934;52.752;6.964;2022-11-25T04:51:15;6.70;99.90
39219;DHT22;24934;52.752;6.964;2022-11-25T04:53:40;6.70;99.90
39219;DHT22;24934;52.752;6.964;2022-11-25T04:56:07;6.70;99.90
39219;DHT22;24934;52.752;6.964;2022-11-25T04:58:33;6.70;99.90
39219;DHT22;24934;52.752;6.964;2022-11-25T05:01:17;6.70;99.90
39219;DHT22;24934;52.752;6.964;2022-11-25T05:03:43;6.80;99.90
39219;DHT22;24934;52.752;6.964;2022-11-25T05:06:09;6.80;99.90
39219;DHT22;24934;52.752;6.964;2022-11-25T05:08:35;6.80;99.90
39219;DHT22;24934;52.752;6.964;2022-11-25T05:11:01;6.80;99.90
39219;DHT22;24934;52.752;6.964;2022-11-25T05:13:26;6.80;99.90
39219;DHT22;24934;52.752;6.964;2022-11-25T05:15:52;6.80;99.90
39219;DHT22;24934;52.752;6.964;2022-11-25T05:18:18;6.90;99.90
39219;DHT22;24934;52.752;6.964;2022-11-25T05:20:43;6.90;99.90
39219;DHT22;24934;52.752;6.964;2022-11-25T05:23:09;6.90;99.90
39219;DHT22;24934;52.752;6.964;2022-11-25T05:25:35;7.00;99.90
39219;DHT22;24934;52.752;6.964;2022-11-25T05:28:01;7.00;99.90
39219;DHT22;24934;52.752;6.964;2022-11-25T05:30:27;7.00;99.90
39219;DHT22;24934;52.752;6.964;2022-11-25T05:32:52;7.00;99.90
39219;DHT22;24934;52.752;6.964;2022-11-25T05:35:18;7.00;99.90
39219;DHT22;24934;52.752;6.964;2022-11-25T05:37:46;7.10;99.90
39219;DHT22;24934;52.752;6.964;2022-11-25T05:40:12;7.10;99.90
39219;DHT22;24934;52.752;6.964;2022-11-25T05:42:37;7.10;99.90
39219;DHT22;24934;52.752;6.964;2022-11-25T05:45:03;7.20;99.90
39219;DHT22;24934;52.752;6.964;2022-11-25T05:47:29;7.10;99.90
39219;DHT22;24934;52.752;6.964;2022-11-25T05:49:55;7.20;99.90
39219;DHT22;24934;52.752;6.964;2022-11-25T05:52:20;7.20;99.90
39219;DHT22;24934;52.752;6.964;2022-11-25T05:54:46;7.20;99.90
39219;DHT22;24934;52.752;6.964;2022-11-25T05:57:11;7.20;99.90
39219;DHT22;24934;52.752;6.964;2022-11-25T05:59:37;7.20;99.90
39219;DHT22;24934;52.752;6.964;2022-11-25T06:02:02;7.20;99.90
39219;DHT22;24934;52.752;6.964;2022-11-25T06:04:28;7.20;99.90
39219;DHT22;24934;52.752;6.964;2022-11-25T06:06:54;7.20;99.90
39219;DHT22;24934;52.752;6.964;2022-11-25T06:09:19;7.20;99.90
39219;DHT22;24934;52.752;6.964;2022-11-25T06:11:45;7.20;99.90
39219;DHT22;24934;52.752;6.964;2022-11-25T06:14:10;7.20;99.90
39219;DHT22;24934;52.752;6.964;2022-11-25T06:16:36;7.30;99.90
39219;DHT22;24934;52.752;6.964;2022-11-25T06:19:02;7.30;99.90
39219;DHT22;24934;52.752;6.964;2022-11-25T06:21:31;7.30;99.90
39219;DHT22;24934;52.752;6.964;2022-11-25T06:23:57;7.30;99.90
39219;DHT22;24934;52.752;6.964;2022-11-25T06:26:23;7.40;99.90
39219;DHT22;24934;52.752;6.964;2022-11-25T06:28:52;7.40;99.90
39219;DHT22;24934;52.752;6.964;2022-11-25T06:31:20;7.40;99.90
39219;DHT22;24934;52.752;6.964;2022-11-25T06:33:47;7.40;99.90
39219;DHT22;24934;52.752;6.964;2022-11-25T06:36:16;7.40;99.90
39219;DHT22;24934;52.752;6.964;2022-11-25T06:38:49;7.40;99.90
39219;DHT22;24934;52.752;6.964;2022-11-25T06:41:15;7.40;99.90
39219;DHT22;24934;52.752;6.964;2022-11-25T06:43:42;7.40;99.90
39219;DHT22;24934;52.752;6.964;2022-11-25T06:46:12;7.40;99.90
39219;DHT22;24934;52.752;6.964;2022-11-25T06:48:38;7.40;99.90
39219;DHT22;24934;52.752;6.964;2022-11-25T06:51:08;7.40;99.90
39219;DHT22;24934;52.752;6.964;2022-11-25T06:53:35;7.40;99.90
39219;DHT22;24934;52.752;6.964;2022-11-25T06:56:09;7.50;99.90
39219;DHT22;24934;52.752;6.964;2022-11-25T06:58:38;7.50;99.90
39219;DHT22;24934;52.752;6.964;2022-11-25T07:03:39;7.50;99.90
39219;DHT22;24934;52.752;6.964;2022-11-25T07:06:05;7.50;99.90
39219;DHT22;24934;52.752;6.964;2022-11-25T07:08:31;7.60;99.90
39219;DHT22;24934;52.752;6.964;2022-11-25T07:11:09;7.60;99.90
39219;DHT22;24934;52.752;6.964;2022-11-25T07:13:35;7.60;99.90
39219;DHT22;24934;52.752;6.964;2022-11-25T07:16:03;7.60;99.90
39219;DHT22;24934;52.752;6.964;2022-11-25T07:18:35;7.60;99.90
39219;DHT22;24934;52.752;6.964;2022-11-25T07:21:06;7.60;99.90
39219;DHT22;24934;52.752;6.964;2022-11-25T07:23:33;7.60;99.90
39219;DHT22;24934;52.752;6.964;2022-11-25T07:28:32;7.60;99.90
39219;DHT22;24934;52.752;6.964;2022-11-25T07:31:19;7.60;99.90
39219;DHT22;24934;52.752;6.964;2022-11-25T07:33:46;7.60;99.90
39219;DHT22;24934;52.752;6.964;2022-11-25T07:36:13;7.60;99.90
39219;DHT22;24934;52.752;6.964;2022-11-25T07:38:39;7.60;99.90
39219;DHT22;24934;52.752;6.964;2022-11-25T07:41:11;7.70;99.90
39219;DHT22;24934;52.752;6.964;2022-11-25T07:43:37;7.70;99.90
39219;DHT22;24934;52.752;6.964;2022-11-25T07:46:15;7.70;99.90
39219;DHT22;24934;52.752;6.964;2022-11-25T07:48:42;7.70;99.90
39219;DHT22;24934;52.752;6.964;2022-11-25T07:51:33;7.70;99.90
39219;DHT22;24934;52.752;6.964;2022-11-25T07:54:01;7.70;99.90
39219;DHT22;24934;52.752;6.964;2022-11-25T07:56:30;7.70;99.90
39219;DHT22;24934;52.752;6.964;2022-11-25T07:58:56;7.70;99.90
39219;DHT22;24934;52.752;6.964;2022-11-25T08:01:22;7.70;99.90
39219;DHT22;24934;52.752;6.964;2022-11-25T08:03:49;7.70;99.90
39219;DHT22;24934;52.752;6.964;2022-11-25T08:06:20;7.70;99.90
39219;DHT22;24934;52.752;6.964;2022-11-25T08:08:47;7.60;99.90
39219;DHT22;24934;52.752;6.964;2022-11-25T08:11:16;7.60;99.90
39219;DHT22;24934;52.752;6.964;2022-11-25T08:13:42;7.60;99.90
39219;DHT22;24934;52.752;6.964;2022-11-25T08:16:10;7.60;99.90
39219;DHT22;24934;52.752;6.964;2022-11-25T08:18:37;7.60;99.90
39219;DHT22;24934;52.752;6.964;2022-11-25T08:21:05;7.60;99.90
39219;DHT22;24934;52.752;6.964;2022-11-25T08:23:31;7.60;99.90
39219;DHT22;24934;52.752;6.964;2022-11-25T08:25:57;7.60;99.90
39219;DHT22;24934;52.752;6.964;2022-11-25T08:28:26;7.60;99.90
39219;DHT22;24934;52.752;6.964;2022-11-25T08:30:52;7.60;99.90
39219;DHT22;24934;52.752;6.964;2022-11-25T08:33:25;7.60;99.90
39219;DHT22;24934;52.752;6.964;2022-11-25T08:35:53;7.60;99.90
39219;DHT22;24934;52.752;6.964;2022-11-25T08:38:19;7.60;99.90
39219;DHT22;24934;52.752;6.964;2022-11-25T08:40:45;7.60;99.90
39219;DHT22;24934;52.752;6.964;2022-11-25T08:43:11;7.60;99.90
39219;DHT22;24934;52.752;6.964;2022-11-25T08:45:38;7.70;99.90
39219;DHT22;24934;52.752;6.964;2022-11-25T08:48:04;7.70;99.90
39219;DHT22;24934;52.752;6.964;2022-11-25T08:50:30;7.70;99.90
39219;DHT22;24934;52.752;6.964;2022-11-25T08:52:56;7.80;99.90
39219;DHT22;24934;52.752;6.964;2022-11-25T08:55:23;7.90;99.90
39219;DHT22;24934;52.752;6.964;2022-11-25T08:57:51;8.00;99.90
39219;DHT22;24934;52.752;6.964;2022-11-25T09:00:16;8.10;99.90
39219;DHT22;24934;52.752;6.964;2022-11-25T09:02:42;8.20;99.90
39219;DHT22;24934;52.752;6.964;2022-11-25T09:05:11;8.20;99.90
39219;DHT22;24934;52.752;6.964;2022-11-25T09:07:37;8.20;99.90
39219;DHT22;24934;52.752;6.964;2022-11-25T09:10:04;8.20;99.90
39219;DHT22;24934;52.752;6.964;2022-11-25T09:12:30;8.30;99.90
39219;DHT22;24934;52.752;6.964;2022-11-25T09:14:55;8.40;99.90
39219;DHT22;24934;52.752;6.964;2022-11-25T09:17:21;8.40;99.90
39219;DHT22;24934;52.752;6.964;2022-11-25T09:19:47;8.50;99.90
39219;DHT22;24934;52.752;6.964;2022-11-25T09:22:12;8.50;99.90
39219;DHT22;24934;52.752;6.964;2022-11-25T09:24:38;8.50;99.90
39219;DHT22;24934;52.752;6.964;2022-11-25T09:27:06;8.40;99.90
39219;DHT22;24934;52.752;6.964;2022-11-25T09:29:31;8.50;99.90
39219;DHT22;24934;52.752;6.964;2022-11-25T09:31:57;8.50;99.90
39219;DHT22;24934;52.752;6.964;2022-11-25T09:34:22;8.60;99.90
39219;DHT22;24934;52.752;6.964;2022-11-25T09:36:48;8.60;99.90
39219;DHT22;24934;52.752;6.964;2022-11-25T09:39:14;8.70;99.90
39219;DHT22;24934;52.752;6.964;2022-11-25T09:42:02;8.70;99.90
39219;DHT22;24934;52.752;6.964;2022-11-25T09:45:11;8.70;99.90
39219;DHT22;24934;52.752;6.964;2022-11-25T09:56:01;8.90;99.90
39219;DHT22;24934;52.752;6.964;2022-11-25T09:58:37;9.00;99.90
39219;DHT22;24934;52.752;6.964;2022-11-25T10:01:06;9.00;99.90
39219;DHT22;24934;52.752;6.964;2022-11-25T10:03:45;9.00;99.90
39219;DHT22;24934;52.752;6.964;2022-11-25T10:06:24;9.10;99.90
39219;DHT22;24934;52.752;6.964;2022-11-25T10:08:56;9.10;99.90
39219;DHT22;24934;52.752;6.964;2022-11-25T10:14:33;9.20;99.90
39219;DHT22;24934;52.752;6.964;2022-11-25T10:17:13;9.20;99.90
39219;DHT22;24934;52.752;6.964;2022-11-25T10:20:00;9.20;99.90
39219;DHT22;24934;52.752;6.964;2022-11-25T10:22:39;9.20;99.90
39219;DHT22;24934;52.752;6.964;2022-11-25T10:25:24;9.30;99.90
39219;DHT22;24934;52.752;6.964;2022-11-25T10:28:02;9.30;99.90
39219;DHT22;24934;52.752;6.964;2022-11-25T10:30:41;9.40;99.90
39219;DHT22;24934;52.752;6.964;2022-11-25T10:35:46;9.40;99.90
39219;DHT22;24934;52.752;6.964;2022-11-25T10:38:19;9.40;99.90
39219;DHT22;24934;52.752;6.964;2022-11-25T10:40:49;9.50;99.90
39219;DHT22;24934;52.752;6.964;2022-11-25T10:43:15;9.50;99.90
39219;DHT22;24934;52.752;6.964;2022-11-25T10:46:09;9.50;99.90
39219;DHT22;24934;52.752;6.964;2022-11-25T10:49:33;9.60;99.90
39219;DHT22;24934;52.752;6.964;2022-11-25T10:52:00;9.60;99.90
39219;DHT22;24934;52.752;6.964;2022-11-25T10:54:29;9.70;99.90
39219;DHT22;24934;52.752;6.964;2022-11-25T10:56:58;9.80;99.90
39219;DHT22;24934;52.752;6.964;2022-11-25T10:59:37;9.80;99.90
39219;DHT22;24934;52.752;6.964;2022-11-25T11:02:13;9.80;99.90
39219;DHT22;24934;52.752;6.964;2022-11-25T11:07:40;9.90;99.90
39219;DHT22;24934;52.752;6.964;2022-11-25T11:10:24;9.90;99.90
39219;DHT22;24934;52.752;6.964;2022-11-25T11:17:56;10.00;99.90
39219;DHT22;24934;52.752;6.964;2022-11-25T11:23:10;10.10;99.90
39219;DHT22;24934;52.752;6.964;2022-11-25T11:25:42;10.20;99.90
39219;DHT22;24934;52.752;6.964;2022-11-25T11:42:16;10.60;99.90
39219;DHT22;24934;52.752;6.964;2022-11-25T11:45:08;10.60;99.90
39219;DHT22;24934;52.752;6.964;2022-11-25T11:55:56;10.90;99.90
39219;DHT22;24934;52.752;6.964;2022-11-25T11:58:48;11.00;99.90
39219;DHT22;24934;52.752;6.964;2022-11-25T12:04:19;11.20;99.90
39219;DHT22;24934;52.752;6.964;2022-11-25T12:06:59;11.10;99.90
39219;DHT22;24934;52.752;6.964;2022-11-25T12:09:29;11.20;99.90
39219;DHT22;24934;52.752;6.964;2022-11-25T12:12:02;11.20;99.90
39219;DHT22;24934;52.752;6.964;2022-11-25T12:14:31;11.40;99.90
39219;DHT22;24934;52.752;6.964;2022-11-25T12:17:05;11.50;99.90
39219;DHT22;24934;52.752;6.964;2022-11-25T12:22:31;11.80;99.90
39219;DHT22;24934;52.752;6.964;2022-11-25T12:25:24;12.00;99.90
39219;DHT22;24934;52.752;6.964;2022-11-25T12:30:49;12.10;99.90
39219;DHT22;24934;52.752;6.964;2022-11-25T12:33:22;12.10;99.90
39219;DHT22;24934;52.752;6.964;2022-11-25T12:36:14;12.00;99.90
39219;DHT22;24934;52.752;6.964;2022-11-25T12:44:05;11.70;99.90
39219;DHT22;24934;52.752;6.964;2022-11-25T12:46:47;11.60;99.90
39219;DHT22;24934;52.752;6.964;2022-11-25T12:49:26;11.50;99.90
39219;DHT22;24934;52.752;6.964;2022-11-25T12:52:20;11.40;99.90
39219;DHT22;24934;52.752;6.964;2022-11-25T12:55:14;11.20;99.90
39219;DHT22;24934;52.752;6.964;2022-11-25T13:00:23;11.00;99.90
39219;DHT22;24934;52.752;6.964;2022-11-25T13:14:38;11.00;99.90
39219;DHT22;24934;52.752;6.964;2022-11-25T13:17:09;11.00;99.90
39219;DHT22;24934;52.752;6.964;2022-11-25T13:19:36;11.10;99.90
39219;DHT22;24934;52.752;6.964;2022-11-25T13:22:26;11.10;99.90
39219;DHT22;24934;52.752;6.964;2022-11-25T13:24:56;11.10;99.90
39219;DHT22;24934;52.752;6.964;2022-11-25T13:27:32;11.00;99.90
39219;DHT22;24934;52.752;6.964;2022-11-25T13:35:47;10.80;99.90
39219;DHT22;24934;52.752;6.964;2022-11-25T13:41:19;10.70;99.90
39219;DHT22;24934;52.752;6.964;2022-11-25T13:49:04;10.60;99.90
39219;DHT22;24934;52.752;6.964;2022-11-25T13:51:31;10.50;99.90
39219;DHT22;24934;52.752;6.964;2022-11-25T13:54:03;10.50;99.90
39219;DHT22;24934;52.752;6.964;2022-11-25T13:56:33;10.50;99.90
39219;DHT22;24934;52.752;6.964;2022-11-25T14:01:50;10.40;99.90
39219;DHT22;24934;52.752;6.964;2022-11-25T14:04:31;10.30;99.90
39219;DHT22;24934;52.752;6.964;2022-11-25T14:07:19;10.30;99.90
39219;DHT22;24934;52.752;6.964;2022-11-25T14:12:52;10.30;99.90
39219;DHT22;24934;52.752;6.964;2022-11-25T14:26:39;10.20;99.90
39219;DHT22;24934;52.752;6.964;2022-11-25T14:29:27;10.10;99.90
39219;DHT22;24934;52.752;6.964;2022-11-25T14:32:02;10.00;99.90
39219;DHT22;24934;52.752;6.964;2022-11-25T14:34:41;10.00;99.90
39219;DHT22;24934;52.752;6.964;2022-11-25T14:37:21;10.00;99.90
39219;DHT22;24934;52.752;6.964;2022-11-25T14:42:39;10.00;99.90
39219;DHT22;24934;52.752;6.964;2022-11-25T14:45:30;9.90;99.90
39219;DHT22;24934;52.752;6.964;2022-11-25T14:47:56;9.90;99.90
39219;DHT22;24934;52.752;6.964;2022-11-25T14:50:22;9.90;99.90
39219;DHT22;24934;52.752;6.964;2022-11-25T14:52:48;9.80;99.90
39219;DHT22;24934;52.752;6.964;2022-11-25T14:55:29;9.80;99.90
39219;DHT22;24934;52.752;6.964;2022-11-25T14:57:58;9.80;99.90
39219;DHT22;24934;52.752;6.964;2022-11-25T15:00:24;9.80;99.90
39219;DHT22;24934;52.752;6.964;2022-11-25T15:02:58;9.80;99.90
39219;DHT22;24934;52.752;6.964;2022-11-25T15:05:37;9.70;99.90
39219;DHT22;24934;52.752;6.964;2022-11-25T15:08:14;9.70;99.90
39219;DHT22;24934;52.752;6.964;2022-11-25T15:13:41;9.60;99.90
39219;DHT22;24934;52.752;6.964;2022-11-25T15:16:18;9.60;99.90
39219;DHT22;24934;52.752;6.964;2022-11-25T15:21:14;9.40;99.90
39219;DHT22;24934;52.752;6.964;2022-11-25T15:23:40;9.30;99.90
39219;DHT22;24934;52.752;6.964;2022-11-25T15:26:16;9.20;99.90
39219;DHT22;24934;52.752;6.964;2022-11-25T15:28:42;9.10;99.90
39219;DHT22;24934;52.752;6.964;2022-11-25T15:31:10;8.90;99.90
39219;DHT22;24934;52.752;6.964;2022-11-25T15:33:37;8.70;99.90
39219;DHT22;24934;52.752;6.964;2022-11-25T15:36:03;8.60;99.90
39219;DHT22;24934;52.752;6.964;2022-11-25T15:38:43;8.50;99.90
39219;DHT22;24934;52.752;6.964;2022-11-25T15:43:46;8.40;99.90
39219;DHT22;24934;52.752;6.964;2022-11-25T15:46:14;8.40;99.90
39219;DHT22;24934;52.752;6.964;2022-11-25T15:48:46;8.50;99.90
39219;DHT22;24934;52.752;6.964;2022-11-25T15:54:28;8.50;99.90
39219;DHT22;24934;52.752;6.964;2022-11-25T15:56:55;8.50;99.90
39219;DHT22;24934;52.752;6.964;2022-11-25T16:10:29;8.50;99.90
39219;DHT22;24934;52.752;6.964;2022-11-25T16:13:34;8.50;99.90
39219;DHT22;24934;52.752;6.964;2022-11-25T16:21:24;8.50;99.90
39219;DHT22;24934;52.752;6.964;2022-11-25T16:26:31;8.50;99.90
39219;DHT22;24934;52.752;6.964;2022-11-25T16:28:59;8.50;99.90
39219;DHT22;24934;52.752;6.964;2022-11-25T16:31:25;8.50;99.90
39219;DHT22;24934;52.752;6.964;2022-11-25T16:34:00;8.50;99.90
39219;DHT22;24934;52.752;6.964;2022-11-25T16:36:26;8.60;99.90
39219;DHT22;24934;52.752;6.964;2022-11-25T16:38:52;8.60;99.90
39219;DHT22;24934;52.752;6.964;2022-11-25T16:41:23;8.50;99.90
39219;DHT22;24934;52.752;6.964;2022-11-25T16:43:50;8.50;99.90
39219;DHT22;24934;52.752;6.964;2022-11-25T16:46:18;8.40;99.90
39219;DHT22;24934;52.752;6.964;2022-11-25T16:48:44;8.30;99.90
39219;DHT22;24934;52.752;6.964;2022-11-25T16:51:21;8.30;99.90
39219;DHT22;24934;52.752;6.964;2022-11-25T16:53:48;8.10;99.90
39219;DHT22;24934;52.752;6.964;2022-11-25T16:56:22;7.90;99.90
39219;DHT22;24934;52.752;6.964;2022-11-25T16:58:48;7.80;99.90
39219;DHT22;24934;52.752;6.964;2022-11-25T17:01:18;7.60;99.90
39219;DHT22;24934;52.752;6.964;2022-11-25T17:03:45;7.50;99.90
39219;DHT22;24934;52.752;6.964;2022-11-25T17:06:16;7.30;99.90
39219;DHT22;24934;52.752;6.964;2022-11-25T17:08:42;7.30;99.90
39219;DHT22;24934;52.752;6.964;2022-11-25T17:11:41;7.20;99.90
39219;DHT22;24934;52.752;6.964;2022-11-25T17:14:14;7.10;99.90
39219;DHT22;24934;52.752;6.964;2022-11-25T17:16:42;7.10;99.90
39219;DHT22;24934;52.752;6.964;2022-11-25T17:19:14;7.10;99.90
39219;DHT22;24934;52.752;6.964;2022-11-25T17:21:40;7.10;99.90
39219;DHT22;24934;52.752;6.964;2022-11-25T17:24:13;7.10;99.90
39219;DHT22;24934;52.752;6.964;2022-11-25T17:26:41;7.10;99.90
39219;DHT22;24934;52.752;6.964;2022-11-25T17:29:12;7.10;99.90
39219;DHT22;24934;52.752;6.964;2022-11-25T17:31:39;7.10;99.90
39219;DHT22;24934;52.752;6.964;2022-11-25T17:34:05;7.00;99.90
39219;DHT22;24934;52.752;6.964;2022-11-25T17:36:31;7.00;99.90
39219;DHT22;24934;52.752;6.964;2022-11-25T17:38:56;7.00;99.90
39219;DHT22;24934;52.752;6.964;2022-11-25T17:41:24;6.90;99.90
39219;DHT22;24934;52.752;6.964;2022-11-25T17:43:53;6.80;99.90
39219;DHT22;24934;52.752;6.964;2022-11-25T17:46:19;6.70;99.90
39219;DHT22;24934;52.752;6.964;2022-11-25T17:48:47;6.60;99.90
39219;DHT22;24934;52.752;6.964;2022-11-25T17:51:13;6.60;99.90
39219;DHT22;24934;52.752;6.964;2022-11-25T17:53:40;6.60;99.90
39219;DHT22;24934;52.752;6.964;2022-11-25T17:58:42;6.60;99.90
39219;DHT22;24934;52.752;6.964;2022-11-25T18:01:08;6.50;99.90
39219;DHT22;24934;52.752;6.964;2022-11-25T18:03:34;6.50;99.90
39219;DHT22;24934;52.752;6.964;2022-11-25T18:05:59;6.40;99.90
39219;DHT22;24934;52.752;6.964;2022-11-25T18:08:27;6.40;99.90
39219;DHT22;24934;52.752;6.964;2022-11-25T18:10:53;6.40;99.90
39219;DHT22;24934;52.752;6.964;2022-11-25T18:13:19;6.40;99.90
39219;DHT22;24934;52.752;6.964;2022-11-25T18:15:45;6.50;99.90
39219;DHT22;24934;52.752;6.964;2022-11-25T18:18:19;6.40;99.90
39219;DHT22;24934;52.752;6.964;2022-11-25T18:20:45;6.50;99.90
39219;DHT22;24934;52.752;6.964;2022-11-25T18:23:14;6.40;99.90
39219;DHT22;24934;52.752;6.964;2022-11-25T18:25:39;6.40;99.90
39219;DHT22;24934;52.752;6.964;2022-11-25T18:28:05;6.40;99.90
39219;DHT22;24934;52.752;6.964;2022-11-25T18:30:33;6.40;99.90